Terminal Aerodrome Forecast
Issued by NWS

Home | Current Version | Previous Version | Text Only | Print | Product List | Glossary On
Versions: 1 2 3 4 5 6 7 8 9 10 11 12 13 14 15 16 17
055
FTUS43 KMQT 242334
TAFCMX
TAF
KCMX 242334Z 2500/2524 10014G20KT P6SM BKN150
     FM250200 11010KT P6SM BKN120 WS010/18035KT
     FM251300 14009KT P6SM BKN100
     FM252100 08009KT P6SM BKN060=

USA.gov is the U.S. government's official web portal to all federal, state and local government web resources and services.